source [weather.noaa.gov]
EDDP 230020Z 24010KT 9999 FEW030 BKN060 11/08 Q1017 NOSIG

EDDC 230020Z 25007KT 220V300 9999 -RA BKN037 11/07 Q1018

EDDE 230020Z 21005KT 9999 -RA FEW020 BKN040 10/08 Q1018